Meteo Giornale » Osservazioni meteo Stati Uniti (USA) » Volk-Camp Douglas
ore: 13:55 - Osservazioni Meteo Volk-Camp Douglas
Lat. 43° 56' N Lon. 90° 16' W Alt. 277 metri s.l.m.
32 °C
Nuvoloso
Temp. 24 Ore
19 °C
32 °C
Ovest/Nord-Ovest
9.3 Km/h
Dew point 23 °C
Umidità 59 %
Visibilità 10 Km
Il sole sorge alle ore 06:24
Il sole tramonta alle ore 19:37
| Data e Ora | Cielo e Fenomeni | T °C | DP °C | Um. % | Pres. hPa | Vis. km | Vento km/h | |
|---|---|---|---|---|---|---|---|---|
| Oggi h: 13:55 | Nuvoloso | 32 | 23 | 59 | 1012 | 10 | O/NO 9.3 | |
| Oggi h: 12:55 | Molto Nuvoloso | 32 | 23 | 59 | 1012 | 10 | O/NO 14.8 | |
| Oggi h: 11:55 | Nuvoloso | 30 | 24 | 70 | 1013 | 10 | O/SO 7.4 | |
| Oggi h: 10:55 | Nuvoloso | 28 | 24 | 78 | 1013 | 10 | N 0 | |
| Oggi h: 09:55 | Nuvoloso | 25 | 24 | 94 | 1013 | 10 | N 5.5 | |
| Oggi h: 09:45 | Nuvoloso | 25 | 24 | 94 | 1013 | 10 | N 5.5 | |
| Oggi h: 09:15 | Molto Nuvoloso | 24 | 24 | 100 | 1014 | 10 | N 5.5 | |
| Oggi h: 09:02 | Foschia | 24 | 23 | 94 | 1014 | 5 | N 5.5 | |
| Oggi h: 08:55 | Foschia | 24 | 23 | 94 | 1014 | 2 | O/NO 7.4 | |
| Oggi h: 08:30 | Nebbia | 24 | 23 | 94 | 1014 | 2 | O 7.4 | |
| Oggi h: 07:55 | Nebbia | 22 | 21 | 94 | 1013 | 2 | N 0 | |
| Oggi h: 07:20 | Nebbia | 20 | 20 | 100 | 1013 | 5 | N 5.5 | |
| Oggi h: 06:55 | Nebbia | 19 | 19 | 100 | 1013 | 5 | N/NO 9.3 | |
| Oggi h: 06:35 | Nebbia | 19 | 19 | 100 | 1012 | 5 | N 0 | |
| Oggi h: 06:30 | Foschia | 19 | 19 | 100 | 1012 | 2 | N 0 | |
| Oggi h: 06:25 | Foschia | 19 | 19 | 100 | 1012 | 5 | N 0 | |
| Oggi h: 06:10 | Foschia | 19 | 18 | 93 | 1012 | 5 | N 0 | |
| Oggi h: 05:55 | Nebbia | 19 | 19 | 100 | 1012 | 2 | N 0 | |
| Oggi h: 05:50 | Nebbia | 19 | 18 | 93 | 1012 | 2 | N 0 | |
| Oggi h: 05:45 | Foschia | 19 | 19 | 100 | 1012 | 11 | N 0 | |
| Oggi h: 05:40 | Foschia | 19 | 18 | 93 | 1012 | 2 | N 0 | |
| Oggi h: 05:35 | Foschia | 19 | 19 | 100 | 1012 | 5 | N 0 | |
| Oggi h: 05:30 | Nebbia | 19 | 18 | 93 | 1012 | 5 | N 0 | |
| Oggi h: 05:25 | Nebbia | 19 | 18 | 93 | 1012 | 2 | N 0 | |
| Oggi h: 04:55 | Nebbia | 20 | 20 | 100 | 1012 | 5 | N 0 | |
| Oggi h: 04:50 | Nebbia | 20 | 20 | 100 | 1012 | 5 | N 0 | |
| Oggi h: 04:40 | Foschia | 20 | 19 | 93 | 1012 | 8 | N 0 | |
| Oggi h: 04:35 | Nebbia | 20 | 20 | 100 | 1012 | 5 | N 0 | |
| Oggi h: 04:20 | Nebbia | 19 | 18 | 93 | 1012 | 2 | N 0 | |
| Oggi h: 04:05 | Nebbia | 19 | 18 | 93 | 1012 | 5 | N 0 | |
| Oggi h: 03:55 | Nebbia | 19 | 19 | 100 | 1012 | 2 | N 0 | |
| Oggi h: 03:40 | Nebbia | 20 | 19 | 93 | 1012 | 2 | N 0 | |
| Oggi h: 03:05 | Nebbia | 20 | 20 | 100 | 1012 | 5 | N 0 | |
| Oggi h: 02:55 | Nebbia | 21 | 20 | 94 | 1012 | 2 | N 0 | |
| Oggi h: 02:50 | Foschia | 21 | 20 | 94 | 1012 | 5 | N 0 | |
| Oggi h: 02:45 | Foschia | 21 | 20 | 94 | 1012 | 11 | N 0 | |
| Oggi h: 02:40 | Nebbia | 21 | 21 | 100 | 1012 | 2 | N 0 | |
| Oggi h: 02:30 | Nebbia | 20 | 20 | 100 | 1012 | 2 | N 0 | |
| Oggi h: 01:55 | Nebbia | 21 | 20 | 94 | 1012 | 5 | N 0 | |
| Oggi h: 01:45 | Nebbia | 21 | 20 | 94 | 1012 | 2 | N 0 | |
| Oggi h: 01:40 | Foschia | 21 | 21 | 100 | 1012 | 2 | N 0 | |
| Oggi h: 01:35 | Foschia | 21 | 21 | 100 | 1012 | 6 | N 0 | |
| Oggi h: 01:30 | Foschia | 21 | 21 | 100 | 1012 | 2 | N 0 | |
| Oggi h: 01:25 | Nebbia | 21 | 20 | 94 | 1012 | 5 | N 0 | |
| Oggi h: 01:20 | Foschia | 21 | 20 | 94 | 1012 | 8 | N 0 | |
| Oggi h: 01:15 | Foschia | 21 | 21 | 100 | 1012 | 5 | N 0 | |
| Oggi h: 01:10 | Foschia | 21 | 21 | 100 | 1012 | 5 | N 0 | |
| Oggi h: 01:05 | Foschia | 22 | 21 | 94 | 1012 | 2 | N 0 | |
| Oggi h: 01:00 | Foschia | 22 | 21 | 94 | 1012 | 8 | N 0 | |
| Oggi h: 00:55 | Foschia | 22 | 21 | 94 | 1012 | 5 | N 0 | |
| Oggi h: 00:45 | Foschia | 22 | 21 | 94 | 1012 | 5 | N 0 | |
| Oggi h: 00:40 | Foschia | 22 | 21 | 94 | 1011 | 2 | N 0 | |
| Oggi h: 00:30 | Foschia | 22 | 21 | 94 | 1012 | 5 | N 0 | |
| Oggi h: 00:15 | Nebbia | 22 | 21 | 94 | 1012 | 2 | N 0 | |
| Oggi h: 00:10 | Foschia | 22 | 21 | 94 | 1011 | 2 | N 0 | |
| Ieri h: 23:55 | Nuvoloso | 22 | 21 | 94 | 1011 | 11 | N 0 | |
| Ieri h: 22:55 | Sereno | 24 | 23 | 94 | 1011 | 10 | N 0 | |
| Ieri h: 21:55 | Sereno | 25 | 23 | 88 | 1011 | 10 | N 0 | |
| Ieri h: 20:55 | Sereno | 24 | 23 | 94 | 1011 | 10 | E/SE 7.4 | |
| Ieri h: 19:55 | Sereno | 28 | 24 | 78 | 1011 | 10 | N 5.5 | |
| Ieri h: 18:55 | Sereno | 30 | 24 | 70 | 1010 | 10 | S 11.1 | |
| Ieri h: 17:55 | Molto Nuvoloso | 30 | 24 | 70 | 1010 | 10 | S 11.1 | |
| Ieri h: 16:55 | Molto Nuvoloso | 30 | 24 | 70 | 1009 | 10 | N 5.5 | |
| Ieri h: 15:55 | Molto Nuvoloso | 32 | 24 | 62 | 1009 | 10 | SE 13 | |



